sensor_id;sensor_type;location;lat;lon;timestamp;P1;durP1;ratioP1;P2;durP2;ratioP2
42036;SDS011;30340;52.004;5.908;2023-07-31T00:00:12;1.13;;;1.02;;
42036;SDS011;30340;52.004;5.908;2023-07-31T00:02:38;1.08;;;0.98;;
42036;SDS011;30340;52.004;5.908;2023-07-31T00:05:04;1.00;;;0.80;;
42036;SDS011;30340;52.004;5.908;2023-07-31T00:07:30;1.30;;;0.75;;
42036;SDS011;30340;52.004;5.908;2023-07-31T00:09:57;0.95;;;0.90;;
42036;SDS011;30340;52.004;5.908;2023-07-31T00:12:23;0.90;;;0.90;;
42036;SDS011;30340;52.004;5.908;2023-07-31T00:14:48;1.33;;;1.23;;
42036;SDS011;30340;52.004;5.908;2023-07-31T00:17:14;0.90;;;0.90;;
42036;SDS011;30340;52.004;5.908;2023-07-31T00:19:41;1.40;;;1.30;;
42036;SDS011;30340;52.004;5.908;2023-07-31T00:22:07;1.30;;;1.20;;
42036;SDS011;30340;52.004;5.908;2023-07-31T00:24:32;1.60;;;1.50;;
42036;SDS011;30340;52.004;5.908;2023-07-31T00:26:58;1.85;;;1.70;;
42036;SDS011;30340;52.004;5.908;2023-07-31T00:29:23;1.20;;;1.10;;
42036;SDS011;30340;52.004;5.908;2023-07-31T00:31:49;1.50;;;1.40;;
42036;SDS011;30340;52.004;5.908;2023-07-31T00:34:15;2.35;;;1.52;;
42036;SDS011;30340;52.004;5.908;2023-07-31T00:36:40;1.38;;;1.27;;
42036;SDS011;30340;52.004;5.908;2023-07-31T00:39:06;1.63;;;1.52;;
42036;SDS011;30340;52.004;5.908;2023-07-31T00:41:31;1.60;;;1.50;;
42036;SDS011;30340;52.004;5.908;2023-07-31T00:43:57;2.08;;;1.70;;
42036;SDS011;30340;52.004;5.908;2023-07-31T00:46:22;1.90;;;1.75;;
42036;SDS011;30340;52.004;5.908;2023-07-31T00:48:48;2.25;;;1.75;;
42036;SDS011;30340;52.004;5.908;2023-07-31T00:51:14;5.40;;;2.95;;
42036;SDS011;30340;52.004;5.908;2023-07-31T00:53:40;4.07;;;2.30;;
42036;SDS011;30340;52.004;5.908;2023-07-31T00:56:06;5.40;;;2.35;;
42036;SDS011;30340;52.004;5.908;2023-07-31T00:58:32;6.60;;;3.08;;
42036;SDS011;30340;52.004;5.908;2023-07-31T01:00:58;7.40;;;3.78;;
42036;SDS011;30340;52.004;5.908;2023-07-31T01:03:23;7.07;;;4.03;;
42036;SDS011;30340;52.004;5.908;2023-07-31T01:11:28;10.45;;;4.93;;
42036;SDS011;30340;52.004;5.908;2023-07-31T01:14:03;11.90;;;4.78;;
42036;SDS011;30340;52.004;5.908;2023-07-31T01:16:29;14.27;;;6.22;;
42036;SDS011;30340;52.004;5.908;2023-07-31T01:18:55;12.20;;;6.15;;
42036;SDS011;30340;52.004;5.908;2023-07-31T01:26:42;16.55;;;7.60;;
42036;SDS011;30340;52.004;5.908;2023-07-31T01:32:07;16.83;;;7.18;;
42036;SDS011;30340;52.004;5.908;2023-07-31T01:34:35;21.45;;;8.85;;
42036;SDS011;30340;52.004;5.908;2023-07-31T01:37:02;21.77;;;9.27;;
42036;SDS011;30340;52.004;5.908;2023-07-31T01:39:28;20.40;;;8.32;;
42036;SDS011;30340;52.004;5.908;2023-07-31T01:41:53;20.17;;;8.20;;
42036;SDS011;30340;52.004;5.908;2023-07-31T01:44:19;15.23;;;7.10;;
42036;SDS011;30340;52.004;5.908;2023-07-31T01:46:45;17.73;;;7.90;;
42036;SDS011;30340;52.004;5.908;2023-07-31T01:49:10;15.93;;;7.47;;
42036;SDS011;30340;52.004;5.908;2023-07-31T01:51:36;16.50;;;7.32;;
42036;SDS011;30340;52.004;5.908;2023-07-31T01:54:01;13.68;;;6.80;;
42036;SDS011;30340;52.004;5.908;2023-07-31T01:56:27;18.67;;;7.30;;
42036;SDS011;30340;52.004;5.908;2023-07-31T01:58:53;15.10;;;7.00;;
42036;SDS011;30340;52.004;5.908;2023-07-31T02:01:19;15.77;;;6.90;;
42036;SDS011;30340;52.004;5.908;2023-07-31T02:03:45;14.73;;;6.85;;
42036;SDS011;30340;52.004;5.908;2023-07-31T02:06:10;14.93;;;7.00;;
42036;SDS011;30340;52.004;5.908;2023-07-31T02:08:36;16.75;;;6.88;;
42036;SDS011;30340;52.004;5.908;2023-07-31T02:11:02;14.90;;;7.22;;
42036;SDS011;30340;52.004;5.908;2023-07-31T02:13:27;13.80;;;6.78;;
42036;SDS011;30340;52.004;5.908;2023-07-31T02:15:53;17.63;;;7.47;;
42036;SDS011;30340;52.004;5.908;2023-07-31T02:18:19;15.50;;;7.30;;
42036;SDS011;30340;52.004;5.908;2023-07-31T02:20:48;16.17;;;7.00;;
42036;SDS011;30340;52.004;5.908;2023-07-31T02:23:14;14.27;;;6.40;;
42036;SDS011;30340;52.004;5.908;2023-07-31T02:25:40;13.02;;;6.47;;
42036;SDS011;30340;52.004;5.908;2023-07-31T02:28:05;13.43;;;6.43;;
42036;SDS011;30340;52.004;5.908;2023-07-31T02:30:31;11.07;;;6.45;;
42036;SDS011;30340;52.004;5.908;2023-07-31T02:32:56;13.35;;;6.57;;
42036;SDS011;30340;52.004;5.908;2023-07-31T02:35:22;14.50;;;6.13;;
42036;SDS011;30340;52.004;5.908;2023-07-31T02:37:48;12.45;;;5.70;;
42036;SDS011;30340;52.004;5.908;2023-07-31T02:40:13;9.77;;;5.00;;
42036;SDS011;30340;52.004;5.908;2023-07-31T02:42:39;9.75;;;5.07;;
42036;SDS011;30340;52.004;5.908;2023-07-31T02:45:05;7.43;;;4.55;;
42036;SDS011;30340;52.004;5.908;2023-07-31T02:47:31;7.38;;;3.97;;
42036;SDS011;30340;52.004;5.908;2023-07-31T02:49:56;8.45;;;4.80;;
42036;SDS011;30340;52.004;5.908;2023-07-31T02:52:22;10.27;;;4.65;;
42036;SDS011;30340;52.004;5.908;2023-07-31T02:54:48;10.88;;;4.82;;
42036;SDS011;30340;52.004;5.908;2023-07-31T02:57:13;10.55;;;4.95;;
42036;SDS011;30340;52.004;5.908;2023-07-31T02:59:39;10.20;;;4.97;;
42036;SDS011;30340;52.004;5.908;2023-07-31T03:02:05;10.25;;;5.00;;
42036;SDS011;30340;52.004;5.908;2023-07-31T03:04:30;13.50;;;5.90;;
42036;SDS011;30340;52.004;5.908;2023-07-31T03:06:56;13.60;;;6.22;;
42036;SDS011;30340;52.004;5.908;2023-07-31T03:09:21;15.55;;;5.82;;
42036;SDS011;30340;52.004;5.908;2023-07-31T03:11:47;14.77;;;6.28;;
42036;SDS011;30340;52.004;5.908;2023-07-31T03:14:12;14.20;;;5.95;;
42036;SDS011;30340;52.004;5.908;2023-07-31T03:16:38;15.48;;;6.90;;
42036;SDS011;30340;52.004;5.908;2023-07-31T03:19:04;18.42;;;6.75;;
42036;SDS011;30340;52.004;5.908;2023-07-31T03:21:29;14.13;;;5.75;;
42036;SDS011;30340;52.004;5.908;2023-07-31T03:23:55;12.13;;;5.47;;
42036;SDS011;30340;52.004;5.908;2023-07-31T03:26:21;15.40;;;6.78;;
42036;SDS011;30340;52.004;5.908;2023-07-31T03:28:46;14.25;;;6.20;;
42036;SDS011;30340;52.004;5.908;2023-07-31T03:31:12;16.00;;;6.53;;
42036;SDS011;30340;52.004;5.908;2023-07-31T03:33:37;14.40;;;6.35;;
42036;SDS011;30340;52.004;5.908;2023-07-31T03:36:03;13.20;;;5.55;;
42036;SDS011;30340;52.004;5.908;2023-07-31T03:38:29;12.15;;;6.15;;
42036;SDS011;30340;52.004;5.908;2023-07-31T03:40:55;13.50;;;6.03;;
42036;SDS011;30340;52.004;5.908;2023-07-31T03:43:20;11.93;;;5.60;;
42036;SDS011;30340;52.004;5.908;2023-07-31T03:45:46;11.25;;;5.43;;
42036;SDS011;30340;52.004;5.908;2023-07-31T03:48:11;14.02;;;6.88;;
42036;SDS011;30340;52.004;5.908;2023-07-31T03:50:38;13.65;;;6.00;;
42036;SDS011;30340;52.004;5.908;2023-07-31T03:53:04;14.93;;;5.70;;
42036;SDS011;30340;52.004;5.908;2023-07-31T03:55:29;13.80;;;6.07;;
42036;SDS011;30340;52.004;5.908;2023-07-31T03:57:55;14.80;;;6.57;;
42036;SDS011;30340;52.004;5.908;2023-07-31T04:00:20;15.35;;;6.35;;
42036;SDS011;30340;52.004;5.908;2023-07-31T04:02:47;16.42;;;5.50;;
42036;SDS011;30340;52.004;5.908;2023-07-31T04:05:12;10.95;;;5.20;;
42036;SDS011;30340;52.004;5.908;2023-07-31T04:07:38;11.90;;;6.28;;
42036;SDS011;30340;52.004;5.908;2023-07-31T04:10:04;13.43;;;6.10;;
42036;SDS011;30340;52.004;5.908;2023-07-31T04:12:29;13.60;;;5.95;;
42036;SDS011;30340;52.004;5.908;2023-07-31T04:14:55;14.02;;;6.18;;
42036;SDS011;30340;52.004;5.908;2023-07-31T04:17:20;16.98;;;6.60;;
42036;SDS011;30340;52.004;5.908;2023-07-31T04:19:46;15.55;;;6.43;;
42036;SDS011;30340;52.004;5.908;2023-07-31T04:22:12;11.95;;;5.55;;
42036;SDS011;30340;52.004;5.908;2023-07-31T04:24:37;17.02;;;6.45;;
42036;SDS011;30340;52.004;5.908;2023-07-31T04:27:03;13.52;;;5.60;;
42036;SDS011;30340;52.004;5.908;2023-07-31T04:29:28;10.80;;;5.60;;
42036;SDS011;30340;52.004;5.908;2023-07-31T04:31:54;14.70;;;5.57;;
42036;SDS011;30340;52.004;5.908;2023-07-31T04:34:19;15.88;;;6.03;;
42036;SDS011;30340;52.004;5.908;2023-07-31T04:36:45;15.20;;;5.63;;
42036;SDS011;30340;52.004;5.908;2023-07-31T04:39:10;13.18;;;5.45;;
42036;SDS011;30340;52.004;5.908;2023-07-31T04:41:36;13.77;;;5.70;;
42036;SDS011;30340;52.004;5.908;2023-07-31T04:44:01;15.68;;;6.57;;
42036;SDS011;30340;52.004;5.908;2023-07-31T04:46:28;12.68;;;5.75;;
42036;SDS011;30340;52.004;5.908;2023-07-31T04:48:54;10.50;;;5.35;;
42036;SDS011;30340;52.004;5.908;2023-07-31T04:51:20;14.98;;;5.25;;
42036;SDS011;30340;52.004;5.908;2023-07-31T04:53:46;12.15;;;5.05;;
42036;SDS011;30340;52.004;5.908;2023-07-31T04:56:11;12.75;;;5.70;;
42036;SDS011;30340;52.004;5.908;2023-07-31T04:58:37;16.75;;;5.97;;
42036;SDS011;30340;52.004;5.908;2023-07-31T05:01:03;12.43;;;5.40;;
42036;SDS011;30340;52.004;5.908;2023-07-31T05:03:28;10.75;;;4.63;;
42036;SDS011;30340;52.004;5.908;2023-07-31T05:05:54;13.57;;;5.22;;
42036;SDS011;30340;52.004;5.908;2023-07-31T05:08:20;10.30;;;5.25;;
42036;SDS011;30340;52.004;5.908;2023-07-31T05:10:45;13.82;;;5.97;;
42036;SDS011;30340;52.004;5.908;2023-07-31T05:13:11;14.10;;;6.10;;
42036;SDS011;30340;52.004;5.908;2023-07-31T05:15:36;10.95;;;5.82;;
42036;SDS011;30340;52.004;5.908;2023-07-31T05:18:02;11.57;;;5.18;;
42036;SDS011;30340;52.004;5.908;2023-07-31T05:20:27;11.35;;;5.00;;
42036;SDS011;30340;52.004;5.908;2023-07-31T05:22:53;12.10;;;6.13;;
42036;SDS011;30340;52.004;5.908;2023-07-31T05:25:19;14.05;;;5.20;;
42036;SDS011;30340;52.004;5.908;2023-07-31T05:27:44;10.70;;;5.20;;
42036;SDS011;30340;52.004;5.908;2023-07-31T05:30:10;12.32;;;5.60;;
42036;SDS011;30340;52.004;5.908;2023-07-31T05:32:35;13.30;;;5.40;;
42036;SDS011;30340;52.004;5.908;2023-07-31T05:35:01;11.52;;;6.07;;
42036;SDS011;30340;52.004;5.908;2023-07-31T05:37:27;15.88;;;5.53;;
42036;SDS011;30340;52.004;5.908;2023-07-31T05:39:52;13.55;;;6.18;;
42036;SDS011;30340;52.004;5.908;2023-07-31T05:42:18;10.98;;;5.25;;
42036;SDS011;30340;52.004;5.908;2023-07-31T05:44:43;9.65;;;4.90;;
42036;SDS011;30340;52.004;5.908;2023-07-31T05:47:09;11.88;;;5.75;;
42036;SDS011;30340;52.004;5.908;2023-07-31T05:49:35;9.40;;;5.20;;
42036;SDS011;30340;52.004;5.908;2023-07-31T05:52:00;11.07;;;5.40;;
42036;SDS011;30340;52.004;5.908;2023-07-31T05:54:26;9.85;;;4.88;;
42036;SDS011;30340;52.004;5.908;2023-07-31T05:56:51;9.65;;;4.50;;
42036;SDS011;30340;52.004;5.908;2023-07-31T05:59:17;10.75;;;5.53;;
42036;SDS011;30340;52.004;5.908;2023-07-31T06:01:42;7.40;;;3.83;;
42036;SDS011;30340;52.004;5.908;2023-07-31T06:04:08;7.15;;;3.92;;
42036;SDS011;30340;52.004;5.908;2023-07-31T06:06:34;9.30;;;4.93;;
42036;SDS011;30340;52.004;5.908;2023-07-31T06:08:59;12.07;;;5.60;;
42036;SDS011;30340;52.004;5.908;2023-07-31T06:11:25;7.80;;;4.47;;
42036;SDS011;30340;52.004;5.908;2023-07-31T06:13:51;7.75;;;4.28;;
42036;SDS011;30340;52.004;5.908;2023-07-31T06:16:16;10.88;;;4.93;;
42036;SDS011;30340;52.004;5.908;2023-07-31T06:18:42;9.30;;;5.15;;
42036;SDS011;30340;52.004;5.908;2023-07-31T06:21:08;11.70;;;5.47;;
42036;SDS011;30340;52.004;5.908;2023-07-31T06:23:35;10.05;;;4.70;;
42036;SDS011;30340;52.004;5.908;2023-07-31T06:26:00;9.82;;;4.60;;
42036;SDS011;30340;52.004;5.908;2023-07-31T06:28:29;10.27;;;4.13;;
42036;SDS011;30340;52.004;5.908;2023-07-31T06:30:56;9.45;;;4.95;;
42036;SDS011;30340;52.004;5.908;2023-07-31T06:33:22;8.57;;;4.53;;
42036;SDS011;30340;52.004;5.908;2023-07-31T06:35:48;10.35;;;5.40;;
42036;SDS011;30340;52.004;5.908;2023-07-31T06:38:13;8.50;;;4.63;;
42036;SDS011;30340;52.004;5.908;2023-07-31T06:40:39;11.50;;;4.88;;
42036;SDS011;30340;52.004;5.908;2023-07-31T06:43:05;7.22;;;4.07;;
42036;SDS011;30340;52.004;5.908;2023-07-31T06:45:34;9.27;;;4.68;;
42036;SDS011;30340;52.004;5.908;2023-07-31T06:48:01;6.72;;;4.40;;
42036;SDS011;30340;52.004;5.908;2023-07-31T06:50:27;10.38;;;4.95;;
42036;SDS011;30340;52.004;5.908;2023-07-31T06:52:54;6.72;;;3.92;;
42036;SDS011;30340;52.004;5.908;2023-07-31T06:55:20;8.07;;;4.10;;
42036;SDS011;30340;52.004;5.908;2023-07-31T06:57:47;6.93;;;3.70;;
42036;SDS011;30340;52.004;5.908;2023-07-31T07:00:14;5.82;;;3.58;;
42036;SDS011;30340;52.004;5.908;2023-07-31T07:02:40;7.47;;;4.00;;
42036;SDS011;30340;52.004;5.908;2023-07-31T07:05:06;4.43;;;2.95;;
42036;SDS011;30340;52.004;5.908;2023-07-31T07:07:33;5.05;;;3.20;;
42036;SDS011;30340;52.004;5.908;2023-07-31T07:09:59;5.90;;;3.22;;
42036;SDS011;30340;52.004;5.908;2023-07-31T07:12:31;5.88;;;3.28;;
42036;SDS011;30340;52.004;5.908;2023-07-31T07:14:58;4.70;;;2.45;;
42036;SDS011;30340;52.004;5.908;2023-07-31T07:17:24;3.80;;;2.30;;
42036;SDS011;30340;52.004;5.908;2023-07-31T07:19:51;4.50;;;2.42;;
42036;SDS011;30340;52.004;5.908;2023-07-31T07:22:17;3.95;;;2.10;;
42036;SDS011;30340;52.004;5.908;2023-07-31T07:24:43;4.00;;;2.30;;
42036;SDS011;30340;52.004;5.908;2023-07-31T07:27:08;3.13;;;2.20;;
42036;SDS011;30340;52.004;5.908;2023-07-31T07:29:34;3.67;;;2.30;;
42036;SDS011;30340;52.004;5.908;2023-07-31T07:32:00;2.25;;;1.58;;
42036;SDS011;30340;52.004;5.908;2023-07-31T07:34:26;2.13;;;1.60;;
42036;SDS011;30340;52.004;5.908;2023-07-31T07:36:53;2.72;;;1.65;;
42036;SDS011;30340;52.004;5.908;2023-07-31T07:39:19;2.50;;;1.60;;
42036;SDS011;30340;52.004;5.908;2023-07-31T07:41:45;2.28;;;1.48;;
42036;SDS011;30340;52.004;5.908;2023-07-31T07:44:11;1.92;;;1.33;;
42036;SDS011;30340;52.004;5.908;2023-07-31T07:46:37;1.60;;;1.40;;
42036;SDS011;30340;52.004;5.908;2023-07-31T07:49:03;2.08;;;1.48;;
42036;SDS011;30340;52.004;5.908;2023-07-31T07:51:29;1.40;;;1.30;;
42036;SDS011;30340;52.004;5.908;2023-07-31T07:53:56;1.75;;;1.50;;
42036;SDS011;30340;52.004;5.908;2023-07-31T07:56:23;1.40;;;1.23;;
42036;SDS011;30340;52.004;5.908;2023-07-31T07:58:49;1.50;;;1.35;;
42036;SDS011;30340;52.004;5.908;2023-07-31T08:01:15;1.70;;;1.40;;
42036;SDS011;30340;52.004;5.908;2023-07-31T08:03:41;1.42;;;1.30;;
42036;SDS011;30340;52.004;5.908;2023-07-31T08:06:07;1.48;;;1.30;;
42036;SDS011;30340;52.004;5.908;2023-07-31T08:08:34;2.65;;;1.35;;
42036;SDS011;30340;52.004;5.908;2023-07-31T08:11:00;1.60;;;1.45;;
42036;SDS011;30340;52.004;5.908;2023-07-31T08:13:26;1.50;;;1.40;;
42036;SDS011;30340;52.004;5.908;2023-07-31T08:15:51;1.88;;;1.60;;
42036;SDS011;30340;52.004;5.908;2023-07-31T08:18:17;2.00;;;1.80;;
42036;SDS011;30340;52.004;5.908;2023-07-31T08:20:43;1.42;;;1.33;;
42036;SDS011;30340;52.004;5.908;2023-07-31T08:23:08;1.55;;;1.40;;
42036;SDS011;30340;52.004;5.908;2023-07-31T08:25:37;2.05;;;1.52;;
42036;SDS011;30340;52.004;5.908;2023-07-31T08:28:03;1.80;;;1.58;;
42036;SDS011;30340;52.004;5.908;2023-07-31T08:30:29;1.77;;;1.60;;
42036;SDS011;30340;52.004;5.908;2023-07-31T08:32:55;2.05;;;1.60;;
42036;SDS011;30340;52.004;5.908;2023-07-31T08:35:21;1.70;;;1.60;;
42036;SDS011;30340;52.004;5.908;2023-07-31T08:37:46;2.50;;;2.20;;
42036;SDS011;30340;52.004;5.908;2023-07-31T08:40:12;2.50;;;2.20;;
42036;SDS011;30340;52.004;5.908;2023-07-31T08:42:44;1.67;;;1.58;;
42036;SDS011;30340;52.004;5.908;2023-07-31T08:45:13;2.35;;;1.77;;
42036;SDS011;30340;52.004;5.908;2023-07-31T08:47:49;2.15;;;1.95;;
42036;SDS011;30340;52.004;5.908;2023-07-31T08:50:17;3.10;;;2.38;;
42036;SDS011;30340;52.004;5.908;2023-07-31T08:52:45;2.33;;;1.90;;
42036;SDS011;30340;52.004;5.908;2023-07-31T08:55:12;2.10;;;1.90;;
42036;SDS011;30340;52.004;5.908;2023-07-31T08:57:38;2.30;;;2.00;;
42036;SDS011;30340;52.004;5.908;2023-07-31T09:00:04;2.38;;;2.17;;
42036;SDS011;30340;52.004;5.908;2023-07-31T09:02:34;2.60;;;2.05;;
42036;SDS011;30340;52.004;5.908;2023-07-31T09:05:09;2.72;;;2.35;;
42036;SDS011;30340;52.004;5.908;2023-07-31T09:07:35;3.95;;;2.72;;
42036;SDS011;30340;52.004;5.908;2023-07-31T09:10:02;2.35;;;2.15;;
42036;SDS011;30340;52.004;5.908;2023-07-31T09:12:28;2.67;;;2.47;;
42036;SDS011;30340;52.004;5.908;2023-07-31T09:14:54;3.22;;;2.50;;
42036;SDS011;30340;52.004;5.908;2023-07-31T09:17:31;3.53;;;2.72;;
42036;SDS011;30340;52.004;5.908;2023-07-31T09:20:17;2.72;;;2.30;;
42036;SDS011;30340;52.004;5.908;2023-07-31T09:22:45;3.08;;;2.65;;
42036;SDS011;30340;52.004;5.908;2023-07-31T09:27:57;3.22;;;2.78;;
42036;SDS011;30340;52.004;5.908;2023-07-31T09:30:24;2.80;;;2.60;;
42036;SDS011;30340;52.004;5.908;2023-07-31T09:32:50;2.85;;;2.60;;
42036;SDS011;30340;52.004;5.908;2023-07-31T09:35:28;4.15;;;3.25;;
42036;SDS011;30340;52.004;5.908;2023-07-31T09:38:06;4.43;;;3.17;;
42036;SDS011;30340;52.004;5.908;2023-07-31T09:40:37;5.60;;;4.63;;
42036;SDS011;30340;52.004;5.908;2023-07-31T09:43:05;5.50;;;4.43;;
42036;SDS011;30340;52.004;5.908;2023-07-31T09:45:34;4.07;;;3.05;;
42036;SDS011;30340;52.004;5.908;2023-07-31T09:48:03;4.80;;;3.50;;
42036;SDS011;30340;52.004;5.908;2023-07-31T09:50:34;5.20;;;4.70;;
42036;SDS011;30340;52.004;5.908;2023-07-31T09:53:03;6.68;;;4.95;;
42036;SDS011;30340;52.004;5.908;2023-07-31T09:55:29;6.22;;;4.32;;
42036;SDS011;30340;52.004;5.908;2023-07-31T09:57:56;7.28;;;5.05;;
42036;SDS011;30340;52.004;5.908;2023-07-31T10:00:22;5.28;;;4.35;;
42036;SDS011;30340;52.004;5.908;2023-07-31T10:02:50;6.28;;;4.72;;
42036;SDS011;30340;52.004;5.908;2023-07-31T10:05:17;6.85;;;5.70;;
42036;SDS011;30340;52.004;5.908;2023-07-31T10:07:48;7.57;;;4.78;;
42036;SDS011;30340;52.004;5.908;2023-07-31T10:10:19;6.72;;;5.22;;
42036;SDS011;30340;52.004;5.908;2023-07-31T10:12:46;5.90;;;4.57;;
42036;SDS011;30340;52.004;5.908;2023-07-31T10:15:14;5.85;;;4.97;;
42036;SDS011;30340;52.004;5.908;2023-07-31T10:17:40;5.40;;;4.45;;
42036;SDS011;30340;52.004;5.908;2023-07-31T10:20:07;9.77;;;6.80;;
42036;SDS011;30340;52.004;5.908;2023-07-31T10:22:33;5.38;;;4.38;;
42036;SDS011;30340;52.004;5.908;2023-07-31T10:24:59;6.68;;;5.25;;
42036;SDS011;30340;52.004;5.908;2023-07-31T10:27:26;6.20;;;5.10;;
42036;SDS011;30340;52.004;5.908;2023-07-31T10:29:52;7.28;;;5.35;;
42036;SDS011;30340;52.004;5.908;2023-07-31T10:32:20;6.70;;;6.00;;
42036;SDS011;30340;52.004;5.908;2023-07-31T10:34:46;8.00;;;6.22;;
42036;SDS011;30340;52.004;5.908;2023-07-31T10:37:23;8.38;;;6.05;;
42036;SDS011;30340;52.004;5.908;2023-07-31T10:40:06;7.80;;;5.63;;
42036;SDS011;30340;52.004;5.908;2023-07-31T10:42:45;8.80;;;6.70;;
42036;SDS011;30340;52.004;5.908;2023-07-31T10:45:25;6.20;;;5.53;;
42036;SDS011;30340;52.004;5.908;2023-07-31T10:47:59;8.18;;;6.55;;
42036;SDS011;30340;52.004;5.908;2023-07-31T10:50:26;9.32;;;6.72;;
42036;SDS011;30340;52.004;5.908;2023-07-31T10:52:56;8.98;;;6.40;;
42036;SDS011;30340;52.004;5.908;2023-07-31T10:55:32;8.80;;;6.55;;
42036;SDS011;30340;52.004;5.908;2023-07-31T10:58:09;8.80;;;6.30;;
42036;SDS011;30340;52.004;5.908;2023-07-31T11:00:38;9.10;;;6.72;;
42036;SDS011;30340;52.004;5.908;2023-07-31T11:03:18;8.07;;;6.40;;
42036;SDS011;30340;52.004;5.908;2023-07-31T11:13:48;8.65;;;5.32;;
42036;SDS011;30340;52.004;5.908;2023-07-31T11:16:15;8.27;;;5.75;;
42036;SDS011;30340;52.004;5.908;2023-07-31T11:18:42;9.15;;;7.80;;
42036;SDS011;30340;52.004;5.908;2023-07-31T11:21:12;7.28;;;5.50;;
42036;SDS011;30340;52.004;5.908;2023-07-31T11:23:39;7.53;;;5.43;;
42036;SDS011;30340;52.004;5.908;2023-07-31T11:26:05;6.55;;;5.47;;
42036;SDS011;30340;52.004;5.908;2023-07-31T11:28:32;7.28;;;5.63;;
42036;SDS011;30340;52.004;5.908;2023-07-31T11:30:59;4.90;;;4.30;;
42036;SDS011;30340;52.004;5.908;2023-07-31T11:33:25;6.13;;;4.47;;
42036;SDS011;30340;52.004;5.908;2023-07-31T11:35:51;6.55;;;5.85;;
42036;SDS011;30340;52.004;5.908;2023-07-31T11:38:24;5.55;;;4.90;;
42036;SDS011;30340;52.004;5.908;2023-07-31T11:40:58;6.25;;;4.97;;
42036;SDS011;30340;52.004;5.908;2023-07-31T11:43:27;6.57;;;5.60;;
42036;SDS011;30340;52.004;5.908;2023-07-31T11:45:57;5.88;;;4.82;;
42036;SDS011;30340;52.004;5.908;2023-07-31T11:48:28;6.03;;;4.70;;
42036;SDS011;30340;52.004;5.908;2023-07-31T11:50:58;6.18;;;4.88;;
42036;SDS011;30340;52.004;5.908;2023-07-31T11:56:03;6.65;;;4.90;;
42036;SDS011;30340;52.004;5.908;2023-07-31T11:58:30;8.68;;;5.85;;
42036;SDS011;30340;52.004;5.908;2023-07-31T12:00:57;6.95;;;4.85;;
42036;SDS011;30340;52.004;5.908;2023-07-31T12:03:24;6.90;;;4.70;;
42036;SDS011;30340;52.004;5.908;2023-07-31T12:05:50;5.85;;;4.65;;
42036;SDS011;30340;52.004;5.908;2023-07-31T12:08:15;6.07;;;4.28;;
42036;SDS011;30340;52.004;5.908;2023-07-31T12:10:41;5.40;;;4.40;;
42036;SDS011;30340;52.004;5.908;2023-07-31T12:13:10;7.32;;;5.10;;
42036;SDS011;30340;52.004;5.908;2023-07-31T12:15:41;5.93;;;4.47;;
42036;SDS011;30340;52.004;5.908;2023-07-31T12:18:11;5.65;;;4.32;;
42036;SDS011;30340;52.004;5.908;2023-07-31T12:23:12;4.63;;;4.10;;
42036;SDS011;30340;52.004;5.908;2023-07-31T12:25:42;6.72;;;5.07;;
42036;SDS011;30340;52.004;5.908;2023-07-31T12:28:08;5.00;;;3.92;;
42036;SDS011;30340;52.004;5.908;2023-07-31T12:30:37;6.00;;;4.78;;
42036;SDS011;30340;52.004;5.908;2023-07-31T12:33:04;6.03;;;4.65;;
42036;SDS011;30340;52.004;5.908;2023-07-31T12:35:37;6.95;;;4.43;;
42036;SDS011;30340;52.004;5.908;2023-07-31T12:38:05;5.88;;;4.60;;
42036;SDS011;30340;52.004;5.908;2023-07-31T12:40:30;6.85;;;5.03;;
42036;SDS011;30340;52.004;5.908;2023-07-31T12:42:56;6.72;;;4.60;;
42036;SDS011;30340;52.004;5.908;2023-07-31T12:45:22;4.90;;;4.13;;
42036;SDS011;30340;52.004;5.908;2023-07-31T12:47:48;5.40;;;4.25;;
42036;SDS011;30340;52.004;5.908;2023-07-31T12:50:14;5.93;;;4.07;;
42036;SDS011;30340;52.004;5.908;2023-07-31T12:52:39;5.68;;;3.63;;
42036;SDS011;30340;52.004;5.908;2023-07-31T12:55:05;8.70;;;6.45;;
42036;SDS011;30340;52.004;5.908;2023-07-31T12:57:31;5.80;;;4.07;;
42036;SDS011;30340;52.004;5.908;2023-07-31T12:59:56;6.30;;;4.82;;
42036;SDS011;30340;52.004;5.908;2023-07-31T13:02:22;6.50;;;5.68;;
42036;SDS011;30340;52.004;5.908;2023-07-31T13:04:48;6.13;;;5.00;;
42036;SDS011;30340;52.004;5.908;2023-07-31T13:07:14;6.07;;;4.55;;
42036;SDS011;30340;52.004;5.908;2023-07-31T13:09:40;8.20;;;7.22;;
42036;SDS011;30340;52.004;5.908;2023-07-31T13:12:06;7.25;;;5.10;;
42036;SDS011;30340;52.004;5.908;2023-07-31T13:14:32;5.63;;;5.00;;
42036;SDS011;30340;52.004;5.908;2023-07-31T13:16:57;6.97;;;5.32;;
42036;SDS011;30340;52.004;5.908;2023-07-31T13:19:23;6.00;;;4.88;;
42036;SDS011;30340;52.004;5.908;2023-07-31T13:21:48;6.07;;;4.43;;
42036;SDS011;30340;52.004;5.908;2023-07-31T13:24:14;8.95;;;7.13;;
42036;SDS011;30340;52.004;5.908;2023-07-31T13:26:40;5.60;;;5.05;;
42036;SDS011;30340;52.004;5.908;2023-07-31T13:29:05;6.75;;;5.38;;
42036;SDS011;30340;52.004;5.908;2023-07-31T13:31:31;5.82;;;4.82;;
42036;SDS011;30340;52.004;5.908;2023-07-31T13:33:56;5.60;;;4.53;;
42036;SDS011;30340;52.004;5.908;2023-07-31T13:36:22;5.35;;;4.57;;
42036;SDS011;30340;52.004;5.908;2023-07-31T13:38:48;7.13;;;6.22;;
42036;SDS011;30340;52.004;5.908;2023-07-31T13:41:13;6.38;;;5.53;;
42036;SDS011;30340;52.004;5.908;2023-07-31T13:43:39;6.72;;;5.43;;
42036;SDS011;30340;52.004;5.908;2023-07-31T13:46:06;5.57;;;4.22;;
42036;SDS011;30340;52.004;5.908;2023-07-31T13:48:35;5.65;;;4.85;;
42036;SDS011;30340;52.004;5.908;2023-07-31T13:51:01;6.05;;;5.18;;
42036;SDS011;30340;52.004;5.908;2023-07-31T13:53:26;6.80;;;5.88;;
42036;SDS011;30340;52.004;5.908;2023-07-31T13:55:52;8.70;;;6.07;;
42036;SDS011;30340;52.004;5.908;2023-07-31T13:58:17;6.13;;;4.88;;
42036;SDS011;30340;52.004;5.908;2023-07-31T14:00:43;7.35;;;4.28;;
42036;SDS011;30340;52.004;5.908;2023-07-31T14:03:08;5.78;;;4.70;;
42036;SDS011;30340;52.004;5.908;2023-07-31T14:05:34;6.45;;;5.25;;
42036;SDS011;30340;52.004;5.908;2023-07-31T14:08:00;6.88;;;5.72;;
42036;SDS011;30340;52.004;5.908;2023-07-31T14:10:26;6.72;;;4.75;;
42036;SDS011;30340;52.004;5.908;2023-07-31T14:12:51;6.03;;;5.10;;
42036;SDS011;30340;52.004;5.908;2023-07-31T14:15:17;7.05;;;5.40;;
42036;SDS011;30340;52.004;5.908;2023-07-31T14:17:42;6.18;;;4.10;;
42036;SDS011;30340;52.004;5.908;2023-07-31T14:20:08;8.40;;;6.35;;
42036;SDS011;30340;52.004;5.908;2023-07-31T14:22:34;6.28;;;4.95;;
42036;SDS011;30340;52.004;5.908;2023-07-31T14:25:00;8.50;;;6.20;;
42036;SDS011;30340;52.004;5.908;2023-07-31T14:27:26;8.35;;;5.53;;
42036;SDS011;30340;52.004;5.908;2023-07-31T14:29:52;6.70;;;4.80;;
42036;SDS011;30340;52.004;5.908;2023-07-31T14:32:17;5.68;;;4.47;;
42036;SDS011;30340;52.004;5.908;2023-07-31T14:34:43;6.82;;;4.90;;
42036;SDS011;30340;52.004;5.908;2023-07-31T14:37:09;7.22;;;6.00;;
42036;SDS011;30340;52.004;5.908;2023-07-31T14:39:35;6.88;;;5.03;;
42036;SDS011;30340;52.004;5.908;2023-07-31T14:42:00;6.65;;;4.75;;
42036;SDS011;30340;52.004;5.908;2023-07-31T14:44:27;8.55;;;6.07;;
42036;SDS011;30340;52.004;5.908;2023-07-31T14:46:52;8.20;;;5.55;;
42036;SDS011;30340;52.004;5.908;2023-07-31T14:49:18;10.00;;;5.50;;
42036;SDS011;30340;52.004;5.908;2023-07-31T14:51:43;7.03;;;5.22;;
42036;SDS011;30340;52.004;5.908;2023-07-31T14:54:09;7.80;;;5.78;;
42036;SDS011;30340;52.004;5.908;2023-07-31T14:56:34;5.90;;;4.40;;
42036;SDS011;30340;52.004;5.908;2023-07-31T14:59:00;7.72;;;4.60;;
42036;SDS011;30340;52.004;5.908;2023-07-31T15:01:25;6.10;;;4.20;;
42036;SDS011;30340;52.004;5.908;2023-07-31T15:03:51;6.38;;;4.82;;
42036;SDS011;30340;52.004;5.908;2023-07-31T15:06:17;10.13;;;5.72;;
42036;SDS011;30340;52.004;5.908;2023-07-31T15:08:42;8.02;;;4.88;;